createdAt,value
2017-11-11T00:00:44.492Z,24.67
2017-11-11T00:03:14.379Z,25.17
2017-11-11T00:05:44.211Z,25.77
2017-11-11T00:08:14.068Z,27.03
2017-11-11T00:10:43.915Z,27.93
2017-11-11T00:13:13.808Z,26.73
2017-11-11T00:15:43.639Z,33.40
2017-11-11T00:18:13.503Z,28.47
2017-11-11T00:20:43.349Z,29.03
2017-11-11T00:23:13.188Z,24.30
2017-11-11T00:25:43.027Z,26.23
2017-11-11T00:28:12.863Z,27.73
2017-11-11T00:30:42.697Z,19.13
2017-11-11T00:33:12.574Z,16.00
2017-11-11T00:35:42.441Z,28.20
2017-11-11T00:38:12.296Z,28.20
2017-11-11T00:40:42.159Z,31.93
2017-11-11T00:43:12.016Z,31.33
2017-11-11T00:45:41.884Z,31.40
2017-11-11T00:48:11.731Z,33.53
2017-11-11T00:50:41.548Z,30.50
2017-11-11T00:53:11.386Z,28.03
2017-11-11T00:55:41.192Z,33.30
2017-11-11T00:58:11.025Z,27.33
2017-11-11T01:00:40.836Z,29.73
2017-11-11T01:03:10.696Z,32.23
2017-11-11T01:05:40.514Z,30.93
2017-11-11T01:08:10.367Z,35.23
2017-11-11T01:10:40.216Z,24.17
2017-11-11T01:13:10.299Z,41.27
2017-11-11T01:15:40.128Z,33.10
2017-11-11T01:18:10.011Z,44.30
2017-11-11T01:20:39.851Z,40.47
2017-11-11T01:23:09.683Z,32.03
2017-11-11T01:25:39.534Z,35.40
2017-11-11T01:28:09.383Z,31.17
2017-11-11T01:30:39.267Z,33.87
2017-11-11T01:33:09.116Z,30.37
2017-11-11T01:35:38.979Z,26.77
2017-11-11T01:38:08.825Z,27.37
2017-11-11T01:40:38.670Z,23.97
2017-11-11T01:43:08.545Z,25.33
2017-11-11T01:45:38.422Z,27.90
2017-11-11T01:48:08.249Z,19.63
2017-11-11T01:50:38.101Z,19.23
2017-11-11T01:53:07.920Z,30.37
2017-11-11T01:55:37.755Z,27.70
2017-11-11T01:58:07.623Z,27.13
2017-11-11T02:00:37.480Z,25.23
2017-11-11T02:03:07.356Z,25.83
2017-11-11T02:05:37.182Z,27.17
2017-11-11T02:08:07.027Z,29.60
2017-11-11T02:10:36.853Z,30.33
2017-11-11T02:13:06.742Z,28.67
2017-11-11T02:15:36.564Z,32.87
2017-11-11T02:18:06.408Z,23.13
2017-11-11T02:20:36.254Z,29.20
2017-11-11T02:23:06.138Z,23.10
2017-11-11T02:25:36.014Z,25.77
2017-11-11T02:28:05.999Z,25.50
2017-11-11T02:30:35.803Z,24.23
2017-11-11T02:33:05.667Z,28.80
2017-11-11T02:35:35.526Z,22.93
2017-11-11T02:38:05.429Z,24.50
2017-11-11T02:40:35.280Z,23.60
2017-11-11T02:43:05.140Z,24.60
2017-11-11T02:45:34.996Z,28.30
2017-11-11T02:48:04.833Z,31.83
2017-11-11T02:50:34.703Z,27.43
2017-11-11T02:53:04.556Z,30.37
2017-11-11T02:55:34.384Z,29.17
2017-11-11T02:58:04.251Z,35.57
2017-11-11T03:00:34.109Z,25.13
2017-11-11T03:03:03.948Z,24.20
2017-11-11T03:05:33.814Z,24.57
2017-11-11T03:08:03.641Z,23.77
2017-11-11T03:10:33.486Z,24.97
2017-11-11T03:13:03.335Z,20.83
2017-11-11T03:15:33.155Z,24.07
2017-11-11T03:18:03.024Z,19.20
2017-11-11T03:20:32.839Z,24.17
2017-11-11T03:23:02.687Z,19.97
2017-11-11T03:25:32.519Z,20.87
2017-11-11T03:28:02.358Z,19.23
2017-11-11T03:30:32.168Z,24.07
2017-11-11T03:33:02.052Z,25.27
2017-11-11T03:35:31.880Z,24.87
2017-11-11T03:38:01.771Z,23.73
2017-11-11T03:40:31.588Z,23.80
2017-11-11T03:43:01.444Z,21.30
2017-11-11T03:45:31.276Z,20.53
2017-11-11T03:48:01.118Z,26.80
2017-11-11T03:50:30.970Z,21.63
2017-11-11T03:53:00.800Z,21.60
2017-11-11T03:55:30.678Z,22.40
2017-11-11T03:58:00.494Z,22.63
2017-11-11T04:00:30.335Z,24.60
2017-11-11T04:03:00.147Z,31.30
2017-11-11T04:05:29.986Z,32.83
2017-11-11T04:07:59.808Z,32.93
2017-11-11T04:10:29.654Z,32.33
2017-11-11T04:12:59.510Z,21.97
2017-11-11T04:15:29.378Z,25.43
2017-11-11T04:17:59.238Z,25.53
2017-11-11T04:20:29.107Z,25.97
2017-11-11T04:22:58.967Z,23.97
2017-11-11T04:25:28.859Z,22.53
2017-11-11T04:27:58.698Z,26.60
2017-11-11T04:30:28.522Z,21.93
2017-11-11T04:32:58.391Z,36.00
2017-11-11T04:35:28.207Z,29.37
2017-11-11T04:37:58.062Z,26.93
2017-11-11T04:40:27.882Z,21.90
2017-11-11T04:42:57.726Z,20.50
2017-11-11T04:45:27.555Z,34.67
2017-11-11T04:47:57.406Z,37.87
2017-11-11T04:50:27.230Z,28.50
2017-11-11T04:52:57.086Z,33.43
2017-11-11T04:55:26.907Z,50.10
2017-11-11T04:57:56.790Z,40.50
2017-11-11T05:00:26.603Z,44.87
2017-11-11T05:02:56.499Z,32.50
2017-11-11T05:05:26.331Z,26.63
2017-11-11T05:07:56.192Z,26.80
2017-11-11T05:10:26.060Z,27.50
2017-11-11T05:12:55.915Z,26.33
2017-11-11T05:15:25.750Z,22.50
2017-11-11T05:17:55.591Z,25.50
2017-11-11T05:20:25.432Z,22.47
2017-11-11T05:22:55.250Z,22.63
2017-11-11T05:25:25.090Z,19.43
2017-11-11T05:27:54.931Z,19.90
2017-11-11T05:30:24.807Z,22.17
2017-11-11T05:32:54.618Z,18.57
2017-11-11T05:35:24.472Z,18.67
2017-11-11T05:37:54.325Z,16.43
2017-11-11T05:40:24.180Z,23.13
2017-11-11T05:42:54.028Z,27.97
2017-11-11T05:45:23.860Z,15.77
2017-11-11T05:47:53.720Z,14.50
2017-11-11T05:50:23.557Z,35.37
2017-11-11T05:52:53.384Z,16.63
2017-11-11T05:55:23.219Z,24.50
2017-11-11T05:57:53.071Z,24.57
2017-11-11T06:00:22.908Z,30.83
2017-11-11T06:02:52.770Z,29.43
2017-11-11T06:05:22.589Z,19.70
2017-11-11T06:07:52.430Z,25.77
2017-11-11T06:10:22.303Z,24.93
2017-11-11T06:12:52.138Z,15.73
2017-11-11T06:15:22.004Z,23.37
2017-11-11T06:17:51.801Z,20.63
2017-11-11T06:20:21.655Z,16.27
2017-11-11T06:22:51.479Z,17.47
2017-11-11T06:25:21.334Z,19.70
2017-11-11T06:27:51.151Z,25.27
2017-11-11T06:30:20.999Z,23.43
2017-11-11T06:32:50.812Z,24.97
2017-11-11T06:35:20.658Z,24.33
2017-11-11T06:37:50.489Z,28.63
2017-11-11T06:40:20.351Z,22.40
2017-11-11T06:42:50.190Z,31.77
2017-11-11T06:45:20.043Z,28.33
2017-11-11T06:47:49.927Z,28.33
2017-11-11T06:50:19.758Z,27.30
2017-11-11T06:52:49.615Z,24.57
2017-11-11T06:55:19.444Z,22.57
2017-11-11T06:57:49.296Z,20.80
2017-11-11T07:00:19.123Z,19.83
2017-11-11T07:02:49.014Z,22.47
2017-11-11T07:05:18.842Z,17.87
2017-11-11T07:07:48.697Z,21.10
2017-11-11T07:10:18.512Z,19.93
2017-11-11T07:12:48.366Z,19.20
2017-11-11T07:15:18.188Z,20.37
2017-11-11T07:17:48.044Z,21.23
2017-11-11T07:20:18.659Z,21.40
2017-11-11T07:22:48.538Z,22.27
2017-11-11T07:25:18.369Z,21.47
2017-11-11T07:27:48.213Z,19.80
2017-11-11T07:30:18.064Z,30.50
2017-11-11T07:32:47.907Z,31.23
2017-11-11T07:35:17.740Z,32.70
2017-11-11T07:37:47.572Z,17.10
2017-11-11T07:40:17.431Z,20.60
2017-11-11T07:42:47.266Z,18.33
2017-11-11T07:45:17.103Z,23.50
2017-11-11T07:47:46.947Z,25.87
2017-11-11T07:50:16.800Z,22.73
2017-11-11T07:52:46.629Z,26.27
2017-11-11T07:55:16.465Z,28.50
2017-11-11T07:57:46.314Z,30.70
2017-11-11T08:00:16.211Z,19.93
2017-11-11T08:02:46.074Z,23.33
2017-11-11T08:05:15.908Z,18.33
2017-11-11T08:07:45.778Z,27.73
2017-11-11T08:10:15.639Z,24.77
2017-11-11T08:12:45.483Z,29.63
2017-11-11T08:15:15.309Z,25.87
2017-11-11T08:17:45.164Z,19.87
2017-11-11T08:20:14.982Z,31.23
2017-11-11T08:22:44.845Z,36.83
2017-11-11T08:25:14.665Z,24.43
2017-11-11T08:27:44.529Z,27.20
2017-11-11T08:30:14.392Z,26.40
2017-11-11T08:32:44.215Z,25.83
2017-11-11T08:35:14.056Z,28.63
2017-11-11T08:37:43.916Z,28.73
2017-11-11T08:40:13.795Z,24.03
2017-11-11T08:42:43.633Z,20.73
2017-11-11T08:45:13.507Z,23.70
2017-11-11T08:47:43.325Z,29.90
2017-11-11T08:50:13.181Z,35.47
2017-11-11T08:52:42.997Z,31.10
2017-11-11T08:55:12.849Z,35.50
2017-11-11T08:57:42.699Z,32.13
2017-11-11T09:00:12.552Z,21.10
2017-11-11T09:02:42.417Z,26.43
2017-11-11T09:05:12.243Z,17.43
2017-11-11T09:07:42.096Z,20.47
2017-11-11T09:10:11.959Z,25.00
2017-11-11T09:12:41.776Z,22.00
2017-11-11T09:15:11.607Z,26.83
2017-11-11T09:17:41.439Z,24.97
2017-11-11T09:20:11.337Z,23.73
2017-11-11T09:22:41.186Z,23.47
2017-11-11T09:25:11.021Z,22.80
2017-11-11T09:27:40.914Z,32.60
2017-11-11T09:30:10.737Z,27.23
2017-11-11T09:32:40.586Z,19.40
2017-11-11T09:35:10.436Z,26.53
2017-11-11T09:37:40.276Z,23.80
2017-11-11T09:40:10.140Z,22.90
2017-11-11T09:42:40.055Z,19.60
2017-11-11T09:45:09.911Z,21.43
2017-11-11T09:47:39.742Z,20.00
2017-11-11T09:50:09.597Z,17.27
2017-11-11T09:52:39.419Z,17.77
2017-11-11T09:55:09.317Z,22.80
2017-11-11T09:57:39.168Z,18.00
2017-11-11T10:00:09.347Z,23.30
2017-11-11T10:02:39.190Z,18.57
2017-11-11T10:05:09.041Z,19.13
2017-11-11T10:07:38.935Z,17.93
2017-11-11T10:10:08.773Z,15.10
2017-11-11T10:12:38.617Z,19.63
2017-11-11T10:15:08.495Z,16.27
2017-11-11T10:17:38.787Z,16.23
2017-11-11T10:20:08.683Z,15.20
2017-11-11T10:22:38.560Z,15.37
2017-11-11T10:25:08.425Z,32.33
2017-11-11T10:30:14.437Z,26.70
2017-11-11T10:32:44.536Z,24.10
2017-11-11T10:35:14.470Z,25.80
2017-11-11T10:37:44.321Z,20.83
2017-11-11T10:40:14.198Z,21.67
2017-11-11T10:42:44.031Z,27.87
2017-11-11T10:45:13.878Z,21.97
2017-11-11T10:47:43.707Z,23.07
2017-11-11T10:50:13.595Z,20.07
2017-11-11T10:52:43.434Z,22.27
2017-11-11T10:55:13.280Z,21.43
2017-11-11T10:57:43.125Z,25.83
2017-11-11T11:00:12.976Z,27.43
2017-11-11T11:02:42.819Z,23.40
2017-11-11T11:05:12.699Z,21.27
2017-11-11T11:07:42.523Z,18.00
2017-11-11T11:10:12.720Z,21.27
2017-11-11T11:12:42.581Z,22.03
2017-11-11T11:15:12.400Z,24.83
2017-11-11T11:17:42.246Z,26.70
2017-11-11T11:20:12.092Z,27.93
2017-11-11T11:22:42.076Z,35.93
2017-11-11T11:25:11.896Z,36.73
2017-11-11T11:27:42.278Z,30.10
2017-11-11T11:30:12.094Z,42.27
2017-11-11T11:32:41.971Z,36.67
2017-11-11T11:35:12.935Z,38.43
2017-11-11T11:37:42.776Z,34.07
2017-11-11T11:40:12.624Z,25.90
2017-11-11T11:42:42.477Z,33.27
2017-11-11T11:45:12.300Z,35.53
2017-11-11T11:47:42.151Z,36.00
2017-11-11T11:50:12.020Z,35.13
2017-11-11T11:52:41.852Z,36.67
2017-11-11T11:55:11.699Z,39.37
2017-11-11T11:57:41.530Z,39.83
2017-11-11T12:00:11.436Z,35.00
2017-11-11T12:02:41.374Z,29.57
2017-11-11T12:05:11.216Z,29.03
2017-11-11T12:07:41.054Z,28.50
2017-11-11T12:10:11.018Z,27.37
2017-11-11T12:12:40.852Z,30.90
2017-11-11T12:15:10.731Z,31.60
2017-11-11T12:17:40.590Z,32.63
2017-11-11T12:20:10.425Z,33.50
2017-11-11T12:22:40.288Z,32.47
2017-11-11T12:25:10.110Z,36.70
2017-11-11T12:27:39.988Z,37.30
2017-11-11T12:30:09.821Z,39.47
2017-11-11T12:32:40.503Z,37.50
2017-11-11T12:35:10.337Z,38.97
2017-11-11T12:37:40.189Z,36.33
2017-11-11T12:40:10.025Z,36.70
2017-11-11T12:42:40.800Z,37.93
2017-11-11T12:45:10.631Z,36.90
2017-11-11T12:47:41.397Z,34.90
2017-11-11T12:50:11.288Z,34.60
2017-11-11T12:52:41.111Z,32.57
2017-11-11T12:55:10.956Z,33.70
2017-11-11T12:57:40.827Z,28.30
2017-11-11T13:00:10.695Z,30.20
2017-11-11T13:02:40.552Z,29.90
2017-11-11T13:05:10.426Z,28.10
2017-11-11T13:07:40.259Z,24.67
2017-11-11T13:10:10.143Z,29.13
2017-11-11T13:12:39.968Z,27.13
2017-11-11T13:15:09.825Z,43.37
2017-11-11T13:17:39.675Z,40.17
2017-11-11T13:20:09.531Z,40.80
2017-11-11T13:22:39.454Z,40.20
2017-11-11T13:25:09.322Z,49.40
2017-11-11T13:27:39.176Z,53.70
2017-11-11T13:30:09.063Z,53.00
2017-11-11T13:32:38.939Z,49.17
2017-11-11T13:35:08.760Z,46.00
2017-11-11T13:37:38.617Z,28.40
2017-11-11T13:40:08.461Z,33.80
2017-11-11T13:42:38.299Z,50.27
2017-11-11T13:45:08.128Z,53.13
2017-11-11T13:47:37.986Z,59.93
2017-11-11T13:50:07.803Z,62.40
2017-11-11T13:52:37.669Z,59.33
2017-11-11T13:55:07.595Z,42.83
2017-11-11T13:57:37.429Z,42.63
2017-11-11T14:00:07.290Z,47.67
2017-11-11T14:02:37.306Z,46.83
2017-11-11T14:05:07.215Z,44.60
2017-11-11T14:07:37.096Z,22.80
2017-11-11T14:10:06.955Z,38.30
2017-11-11T14:12:36.911Z,42.97
2017-11-11T14:15:06.747Z,42.27
2017-11-11T14:17:36.733Z,32.90
2017-11-11T14:20:06.595Z,36.07
2017-11-11T14:22:36.444Z,38.43
2017-11-11T14:25:06.298Z,44.30
2017-11-11T14:27:36.229Z,44.70
2017-11-11T14:30:06.162Z,42.73
2017-11-11T14:32:35.988Z,43.67
2017-11-11T14:35:05.986Z,43.80
2017-11-11T14:37:35.849Z,36.80
2017-11-11T14:40:05.699Z,47.60
2017-11-11T14:42:35.764Z,44.03
2017-11-11T14:45:05.642Z,43.20
2017-11-11T14:47:35.668Z,41.80
2017-11-11T14:50:05.476Z,39.50
2017-11-11T14:52:35.339Z,45.60
2017-11-11T14:55:05.171Z,43.80
2017-11-11T14:57:35.040Z,47.97
2017-11-11T15:00:04.866Z,39.93
2017-11-11T15:02:34.735Z,43.30
2017-11-11T15:05:04.585Z,42.67
2017-11-11T15:07:34.400Z,39.23
2017-11-11T15:10:04.256Z,41.60
2017-11-11T15:12:34.068Z,37.30
2017-11-11T15:15:04.038Z,40.27
2017-11-11T15:17:33.865Z,41.47
2017-11-11T15:20:03.739Z,32.83
2017-11-11T15:22:33.592Z,40.67
2017-11-11T15:25:03.453Z,27.63
2017-11-11T15:27:33.278Z,37.70
2017-11-11T15:30:03.107Z,38.67
2017-11-11T15:32:32.939Z,35.20
2017-11-11T15:35:02.788Z,33.13
2017-11-11T15:37:32.677Z,39.50
2017-11-11T15:40:02.593Z,39.13
2017-11-11T15:42:32.456Z,38.70
2017-11-11T15:45:02.327Z,34.77
2017-11-11T15:47:32.170Z,38.33
2017-11-11T15:50:01.983Z,35.17
2017-11-11T15:52:31.821Z,29.97
2017-11-11T15:55:01.639Z,28.60
2017-11-11T15:57:31.535Z,33.27
2017-11-11T16:00:01.400Z,35.07
2017-11-11T16:02:31.383Z,31.80
2017-11-11T16:05:01.578Z,29.63
2017-11-11T16:07:31.382Z,39.17
2017-11-11T16:10:02.097Z,15.77
2017-11-11T16:12:32.003Z,27.83
2017-11-11T16:15:01.886Z,20.67
2017-11-11T16:17:31.679Z,21.73
2017-11-11T16:20:01.530Z,25.57
2017-11-11T16:22:31.395Z,15.70
2017-11-11T16:25:01.244Z,20.00
2017-11-11T16:27:31.111Z,22.37
2017-11-11T16:30:00.962Z,19.80
2017-11-11T16:32:30.821Z,17.93
2017-11-11T16:35:00.774Z,22.70
2017-11-11T16:37:30.591Z,27.73
2017-11-11T16:40:00.422Z,31.20
2017-11-11T16:42:30.290Z,26.93
2017-11-11T16:45:00.108Z,25.90
2017-11-11T16:47:29.947Z,32.70
2017-11-11T16:49:59.787Z,29.00
2017-11-11T16:52:29.638Z,32.77
2017-11-11T16:54:59.481Z,30.70
2017-11-11T16:57:29.324Z,34.97
2017-11-11T16:59:59.175Z,33.97
2017-11-11T17:02:29.017Z,47.27
2017-11-11T17:04:59.254Z,45.00
2017-11-11T17:07:29.127Z,41.27
2017-11-11T17:09:58.938Z,21.80
2017-11-11T17:12:28.794Z,22.80
2017-11-11T17:14:58.711Z,22.83
2017-11-11T17:17:28.536Z,22.70
2017-11-11T17:19:58.395Z,19.43
2017-11-11T17:22:28.272Z,21.13
2017-11-11T17:24:58.162Z,22.00
2017-11-11T17:27:28.004Z,22.60
2017-11-11T17:29:57.868Z,23.47
2017-11-11T17:32:27.721Z,27.73
2017-11-11T17:34:57.585Z,20.77
2017-11-11T17:37:27.416Z,29.87
2017-11-11T17:39:57.267Z,27.23
2017-11-11T17:42:27.223Z,26.90
2017-11-11T17:44:57.141Z,27.13
2017-11-11T17:47:27.056Z,30.83
2017-11-11T17:49:56.901Z,29.77
2017-11-11T17:52:26.743Z,26.17
2017-11-11T17:54:56.628Z,32.13
2017-11-11T17:57:26.468Z,28.30
2017-11-11T17:59:56.286Z,26.37
2017-11-11T18:02:27.158Z,28.57
2017-11-11T18:04:57.077Z,24.70
2017-11-11T18:07:26.949Z,27.80
2017-11-11T18:09:56.769Z,29.87
2017-11-11T18:12:26.624Z,26.53
2017-11-11T18:14:56.455Z,30.17
2017-11-11T18:17:26.323Z,32.30
2017-11-11T18:19:56.137Z,30.93
2017-11-11T18:22:25.981Z,32.27
2017-11-11T18:24:55.823Z,28.33
2017-11-11T18:27:26.123Z,31.40
2017-11-11T18:29:55.995Z,31.63
2017-11-11T18:32:25.798Z,27.00
2017-11-11T18:34:55.655Z,22.93
2017-11-11T18:37:25.490Z,27.57
2017-11-11T18:39:55.343Z,26.93
2017-11-11T18:42:25.149Z,25.33
2017-11-11T18:44:54.979Z,27.60
2017-11-11T18:47:24.797Z,23.97
2017-11-11T18:49:54.672Z,28.50
2017-11-11T18:52:24.499Z,25.47
2017-11-11T18:54:54.378Z,19.80
2017-11-11T18:57:24.258Z,18.50
2017-11-11T18:59:54.087Z,15.43
2017-11-11T19:02:23.934Z,24.57
2017-11-11T19:04:53.762Z,20.30
2017-11-11T19:07:23.595Z,29.60
2017-11-11T19:09:53.862Z,23.80
2017-11-11T19:12:23.692Z,24.00
2017-11-11T19:14:53.512Z,22.87
2017-11-11T19:17:23.391Z,24.10
2017-11-11T19:19:53.219Z,27.53
2017-11-11T19:22:23.079Z,28.60
2017-11-11T19:24:52.911Z,27.47
2017-11-11T19:27:22.758Z,29.77
2017-11-11T19:29:52.618Z,27.07
2017-11-11T19:32:22.442Z,30.47
2017-11-11T19:34:52.291Z,29.70
2017-11-11T19:37:22.123Z,26.93
2017-11-11T19:39:51.974Z,26.97
2017-11-11T19:42:21.803Z,30.10
2017-11-11T19:44:51.638Z,27.77
2017-11-11T19:47:21.486Z,29.23
2017-11-11T19:49:51.349Z,26.87
2017-11-11T19:52:21.169Z,34.13
2017-11-11T19:54:51.010Z,31.60
2017-11-11T19:57:20.844Z,33.17
2017-11-11T19:59:50.683Z,31.67
2017-11-11T20:02:20.546Z,30.57
2017-11-11T20:04:50.376Z,17.33
2017-11-11T20:07:20.222Z,21.03
2017-11-11T20:09:50.043Z,25.20
2017-11-11T20:12:19.903Z,28.77
2017-11-11T20:14:49.725Z,23.23
2017-11-11T20:17:19.569Z,29.77
2017-11-11T20:19:49.436Z,26.10
2017-11-11T20:22:19.311Z,31.23
2017-11-11T20:24:49.160Z,28.37
2017-11-11T20:27:19.051Z,30.43
2017-11-11T20:29:48.908Z,19.80
2017-11-11T20:32:18.835Z,21.50
2017-11-11T20:34:48.709Z,20.67
2017-11-11T20:37:18.868Z,22.10
2017-11-11T20:39:48.795Z,37.57
2017-11-11T20:42:18.634Z,44.50
2017-11-11T20:44:48.608Z,45.07
2017-11-11T20:47:18.435Z,39.60
2017-11-11T20:49:48.316Z,36.03
2017-11-11T20:52:18.241Z,38.23
2017-11-11T20:54:48.185Z,26.50
2017-11-11T20:57:18.204Z,24.73
2017-11-11T20:59:48.046Z,24.17
2017-11-11T21:02:17.863Z,27.53
2017-11-11T21:04:48.059Z,24.33
2017-11-11T21:07:17.860Z,26.73
2017-11-11T21:09:47.713Z,25.23
2017-11-11T21:12:17.530Z,24.47
2017-11-11T21:14:47.393Z,25.60
2017-11-11T21:17:17.282Z,22.43
2017-11-11T21:19:47.124Z,24.23
2017-11-11T21:22:16.973Z,26.53
2017-11-11T21:24:46.826Z,26.07
2017-11-11T21:27:16.667Z,20.53
2017-11-11T21:29:46.531Z,29.40
2017-11-11T21:32:16.418Z,29.30
2017-11-11T21:34:46.244Z,30.53
2017-11-11T21:37:16.096Z,35.10
2017-11-11T21:39:45.934Z,32.20
2017-11-11T21:42:15.790Z,34.17
2017-11-11T21:44:45.639Z,29.97
2017-11-11T21:47:15.467Z,31.77
2017-11-11T21:49:46.144Z,30.17
2017-11-11T21:52:17.147Z,34.73
2017-11-11T21:54:47.006Z,27.10
2017-11-11T21:57:16.825Z,27.20
2017-11-11T21:59:46.681Z,27.90
2017-11-11T22:02:16.507Z,28.70
2017-11-11T22:04:46.362Z,31.73
2017-11-11T22:07:16.191Z,32.30
2017-11-11T22:09:46.094Z,27.13
2017-11-11T22:12:15.979Z,24.53
2017-11-11T22:14:45.931Z,24.37
2017-11-11T22:17:15.776Z,26.77
2017-11-11T22:19:45.631Z,21.80
2017-11-11T22:22:15.483Z,28.07
2017-11-11T22:24:45.311Z,30.30
2017-11-11T22:27:15.157Z,32.30
2017-11-11T22:29:44.970Z,37.97
2017-11-11T22:32:14.806Z,34.73
2017-11-11T22:34:44.651Z,34.97
2017-11-11T22:37:14.500Z,40.53
2017-11-11T22:39:44.325Z,38.50
2017-11-11T22:42:14.297Z,44.60
2017-11-11T22:44:44.106Z,43.43
2017-11-11T22:47:14.015Z,46.23
2017-11-11T22:49:44.285Z,42.97
2017-11-11T22:52:14.144Z,34.03
2017-11-11T22:54:44.024Z,35.27
2017-11-11T22:57:13.868Z,34.97
2017-11-11T22:59:43.719Z,37.33
2017-11-11T23:02:13.625Z,35.90
2017-11-11T23:04:43.483Z,32.80
2017-11-11T23:07:13.314Z,32.57
2017-11-11T23:09:43.184Z,32.23
2017-11-11T23:12:13.031Z,33.70
2017-11-11T23:14:42.909Z,29.67
2017-11-11T23:17:12.782Z,29.97
2017-11-11T23:19:42.655Z,33.20
2017-11-11T23:22:12.479Z,40.50
2017-11-11T23:24:42.335Z,31.90
2017-11-11T23:27:12.172Z,35.23
2017-11-11T23:29:42.040Z,37.77
2017-11-11T23:32:11.954Z,37.93
2017-11-11T23:34:41.778Z,35.83
2017-11-11T23:37:11.634Z,37.20
2017-11-11T23:39:41.467Z,36.03
2017-11-11T23:42:11.307Z,35.00
2017-11-11T23:44:41.134Z,35.30
2017-11-11T23:47:11.023Z,33.53
2017-11-11T23:49:40.900Z,35.97
2017-11-11T23:52:10.740Z,33.83
2017-11-11T23:54:40.608Z,32.50
2017-11-11T23:57:10.655Z,34.50
2017-11-11T23:59:40.503Z,34.33
